createdAt,value
2023-02-27T00:00:17.546Z,394.00
2023-02-27T00:00:47.575Z,394.00
2023-02-27T00:01:17.604Z,394.00
2023-02-27T00:01:47.640Z,395.00
2023-02-27T00:02:17.699Z,393.00
2023-02-27T00:02:47.798Z,394.00
2023-02-27T00:03:17.849Z,396.00
2023-02-27T00:03:48.015Z,397.00
2023-02-27T00:04:17.892Z,399.00
2023-02-27T00:04:47.919Z,397.00
2023-02-27T00:05:17.941Z,396.00
2023-02-27T00:05:47.968Z,397.00
2023-02-27T00:06:18.007Z,396.00
2023-02-27T00:06:48.048Z,397.00
2023-02-27T00:07:18.066Z,397.00
2023-02-27T00:07:48.091Z,395.00
2023-02-27T00:08:18.126Z,397.00
2023-02-27T00:08:48.213Z,397.00
2023-02-27T00:09:18.239Z,397.00
2023-02-27T00:09:48.273Z,397.00
2023-02-27T00:10:18.297Z,396.00
2023-02-27T00:10:48.367Z,399.00
2023-02-27T00:11:18.396Z,399.00
2023-02-27T00:11:48.421Z,399.00
2023-02-27T00:12:18.450Z,398.00
2023-02-27T00:12:48.482Z,398.00
2023-02-27T00:13:18.506Z,398.00
2023-02-27T00:13:48.537Z,399.00
2023-02-27T00:14:18.559Z,400.00
2023-02-27T00:14:48.614Z,398.00
2023-02-27T00:15:18.612Z,396.00
2023-02-27T00:15:48.649Z,395.00
2023-02-27T00:16:18.736Z,395.00
2023-02-27T00:16:48.737Z,394.00
2023-02-27T00:17:18.761Z,393.00
2023-02-27T00:17:48.815Z,390.00
2023-02-27T00:18:18.823Z,388.00
2023-02-27T00:18:48.842Z,388.00
2023-02-27T00:19:18.867Z,385.00
2023-02-27T00:19:48.895Z,385.00
2023-02-27T00:20:18.915Z,388.00
2023-02-27T00:20:48.963Z,389.00
2023-02-27T00:21:18.984Z,391.00
2023-02-27T00:21:49.022Z,392.00
2023-02-27T00:22:19.037Z,394.00
2023-02-27T00:22:49.068Z,396.00
2023-02-27T00:23:19.087Z,395.00
2023-02-27T00:23:49.119Z,395.00
2023-02-27T00:24:19.146Z,396.00
2023-02-27T00:24:49.165Z,397.00
2023-02-27T00:25:19.198Z,397.00
2023-02-27T00:25:49.223Z,397.00
2023-02-27T00:26:19.285Z,395.00
2023-02-27T00:26:49.303Z,395.00
2023-02-27T00:27:19.321Z,394.00
2023-02-27T00:27:49.356Z,393.00
2023-02-27T00:28:19.375Z,394.00
2023-02-27T00:28:49.402Z,395.00
2023-02-27T00:29:19.427Z,394.00
2023-02-27T00:29:49.448Z,392.00
2023-02-27T00:30:19.475Z,394.00
2023-02-27T00:30:49.660Z,394.00
2023-02-27T00:31:19.647Z,392.00
2023-02-27T00:31:49.779Z,393.00
2023-02-27T00:32:19.730Z,395.00
2023-02-27T00:32:49.736Z,395.00
2023-02-27T00:33:19.816Z,394.00
2023-02-27T00:33:49.829Z,394.00
2023-02-27T00:34:19.857Z,394.00
2023-02-27T00:34:49.887Z,394.00
2023-02-27T00:35:19.901Z,393.00
2023-02-27T00:35:49.925Z,394.00
2023-02-27T00:36:19.962Z,396.00
2023-02-27T00:36:49.991Z,393.00
2023-02-27T00:37:20.018Z,393.00
2023-02-27T00:37:50.053Z,394.00
2023-02-27T00:38:20.105Z,393.00
2023-02-27T00:38:50.100Z,393.00
2023-02-27T00:39:20.131Z,393.00
2023-02-27T00:39:50.146Z,393.00
2023-02-27T00:40:20.174Z,393.00
2023-02-27T00:40:50.275Z,392.00
2023-02-27T00:41:20.407Z,393.00
2023-02-27T00:41:50.498Z,395.00
2023-02-27T00:42:20.613Z,395.00
2023-02-27T00:42:50.729Z,393.00
2023-02-27T00:43:20.843Z,394.00
2023-02-27T00:43:50.949Z,394.00
2023-02-27T00:44:21.072Z,393.00
2023-02-27T00:44:51.178Z,394.00
2023-02-27T00:45:21.292Z,395.00
2023-02-27T00:45:51.298Z,395.00
2023-02-27T00:46:21.455Z,395.00
2023-02-27T00:46:51.532Z,394.00
2023-02-27T00:47:21.533Z,395.00
2023-02-27T00:47:51.630Z,395.00
2023-02-27T00:48:21.765Z,393.00
2023-02-27T00:48:51.996Z,392.00
2023-02-27T00:49:21.971Z,390.00
2023-02-27T00:49:52.072Z,393.00
2023-02-27T00:50:22.060Z,393.00
2023-02-27T00:50:52.092Z,392.00
2023-02-27T00:51:22.134Z,392.00
2023-02-27T00:51:52.147Z,392.00
2023-02-27T00:52:22.170Z,394.00
2023-02-27T00:52:52.202Z,394.00
2023-02-27T00:53:22.222Z,395.00
2023-02-27T00:53:52.249Z,395.00
2023-02-27T00:54:22.283Z,393.00
2023-02-27T00:54:52.306Z,394.00
2023-02-27T00:55:22.355Z,395.00
2023-02-27T00:55:52.378Z,397.00
2023-02-27T00:56:22.392Z,398.00
2023-02-27T00:56:52.411Z,400.00
2023-02-27T00:57:22.467Z,400.00
2023-02-27T00:57:52.533Z,400.00
2023-02-27T00:58:22.547Z,400.00
2023-02-27T00:58:52.574Z,400.00
2023-02-27T00:59:22.603Z,399.00
2023-02-27T00:59:52.629Z,400.00
2023-02-27T01:00:22.659Z,399.00
2023-02-27T01:00:52.776Z,399.00
2023-02-27T01:01:22.703Z,400.00
2023-02-27T01:01:52.726Z,400.00
2023-02-27T01:02:22.823Z,398.00
2023-02-27T01:02:52.998Z,398.00
2023-02-27T01:03:22.932Z,399.00
2023-02-27T01:03:52.953Z,397.00
2023-02-27T01:04:23.002Z,397.00
2023-02-27T01:04:53.019Z,396.00
2023-02-27T01:05:23.030Z,396.00
2023-02-27T01:05:53.055Z,395.00
2023-02-27T01:06:23.090Z,396.00
2023-02-27T01:06:53.119Z,394.00
2023-02-27T01:07:23.140Z,395.00
2023-02-27T01:07:53.165Z,396.00
2023-02-27T01:08:23.195Z,396.00
2023-02-27T01:08:53.236Z,397.00
2023-02-27T01:09:23.254Z,395.00
2023-02-27T01:09:53.274Z,397.00
2023-02-27T01:10:23.309Z,396.00
2023-02-27T01:10:53.319Z,395.00
2023-02-27T01:11:23.594Z,395.00
2023-02-27T01:11:53.356Z,395.00
2023-02-27T01:12:23.381Z,396.00
2023-02-27T01:12:53.432Z,395.00
2023-02-27T01:13:23.442Z,394.00
2023-02-27T01:13:53.468Z,393.00
2023-02-27T01:14:23.494Z,393.00
2023-02-27T01:14:53.526Z,393.00
2023-02-27T01:15:23.555Z,393.00
2023-02-27T01:15:53.572Z,393.00
2023-02-27T01:16:23.639Z,392.00
2023-02-27T01:16:53.650Z,393.00
2023-02-27T01:17:23.677Z,395.00
2023-02-27T01:17:53.729Z,396.00
2023-02-27T01:18:23.731Z,396.00
2023-02-27T01:18:53.758Z,397.00
2023-02-27T01:19:23.782Z,396.00
2023-02-27T01:19:53.828Z,395.00
2023-02-27T01:20:23.825Z,394.00
2023-02-27T01:20:53.877Z,393.00
2023-02-27T01:21:24.043Z,391.00
2023-02-27T01:21:54.106Z,391.00
2023-02-27T01:22:23.995Z,392.00
2023-02-27T01:22:54.026Z,392.00
2023-02-27T01:23:24.052Z,392.00
2023-02-27T01:23:54.079Z,390.00
2023-02-27T01:24:24.111Z,390.00
2023-02-27T01:24:54.127Z,391.00
2023-02-27T01:25:24.158Z,392.00
2023-02-27T01:25:54.175Z,394.00
2023-02-27T01:26:24.204Z,393.00
2023-02-27T01:26:54.225Z,391.00
2023-02-27T01:27:24.250Z,390.00
2023-02-27T01:27:54.282Z,387.00
2023-02-27T01:28:24.324Z,387.00
2023-02-27T01:28:54.353Z,385.00
2023-02-27T01:29:24.365Z,386.00
2023-02-27T01:29:54.405Z,386.00
2023-02-27T01:30:24.490Z,387.00
2023-02-27T01:30:54.561Z,389.00
2023-02-27T01:31:24.946Z,390.00
2023-02-27T01:31:54.721Z,389.00
2023-02-27T01:32:24.847Z,390.00
2023-02-27T01:32:54.708Z,391.00
2023-02-27T01:33:24.762Z,393.00
2023-02-27T01:33:54.781Z,395.00
2023-02-27T01:34:24.798Z,396.00
2023-02-27T01:34:54.843Z,395.00
2023-02-27T01:35:24.880Z,395.00
2023-02-27T01:35:54.888Z,398.00
2023-02-27T01:36:24.918Z,397.00
2023-02-27T01:36:54.942Z,396.00
2023-02-27T01:37:24.965Z,397.00
2023-02-27T01:37:54.992Z,396.00
2023-02-27T01:38:25.041Z,395.00
2023-02-27T01:38:55.064Z,395.00
2023-02-27T01:39:25.086Z,391.00
2023-02-27T01:39:55.108Z,392.00
2023-02-27T01:40:25.120Z,394.00
2023-02-27T01:40:55.228Z,394.00
2023-02-27T01:41:25.695Z,395.00
2023-02-27T01:41:55.350Z,395.00
2023-02-27T01:42:25.463Z,395.00
2023-02-27T01:42:55.582Z,394.00
2023-02-27T01:43:25.701Z,393.00
2023-02-27T01:43:55.686Z,392.00
2023-02-27T01:44:25.725Z,391.00
2023-02-27T01:44:55.843Z,390.00
2023-02-27T01:45:25.964Z,391.00
2023-02-27T01:45:56.109Z,389.00
2023-02-27T01:46:26.083Z,391.00
2023-02-27T01:46:56.190Z,392.00
2023-02-27T01:47:26.299Z,392.00
2023-02-27T01:47:56.412Z,391.00
2023-02-27T01:48:26.586Z,391.00
2023-02-27T01:48:56.563Z,390.00
2023-02-27T01:49:26.676Z,391.00
2023-02-27T01:49:56.786Z,393.00
2023-02-27T01:50:26.793Z,393.00
2023-02-27T01:50:56.840Z,395.00
2023-02-27T01:51:27.066Z,394.00
2023-02-27T01:51:56.941Z,393.00
2023-02-27T01:52:26.968Z,394.00
2023-02-27T01:52:56.989Z,392.00
2023-02-27T01:53:27.021Z,391.00
2023-02-27T01:53:57.046Z,392.00
2023-02-27T01:54:27.075Z,393.00
2023-02-27T01:54:57.105Z,395.00
2023-02-27T01:55:27.130Z,395.00
2023-02-27T01:55:57.165Z,395.00
2023-02-27T01:56:27.183Z,395.00
2023-02-27T01:56:57.226Z,395.00
2023-02-27T01:57:27.247Z,393.00
2023-02-27T01:57:57.251Z,390.00
2023-02-27T01:58:27.285Z,390.00
2023-02-27T01:58:57.317Z,390.00
2023-02-27T01:59:27.338Z,388.00
2023-02-27T01:59:57.365Z,388.00
2023-02-27T02:00:27.404Z,387.00
2023-02-27T02:00:57.476Z,386.00
2023-02-27T02:01:27.894Z,384.00
2023-02-27T02:01:57.524Z,385.00
2023-02-27T02:02:27.614Z,385.00
2023-02-27T02:02:57.646Z,386.00
2023-02-27T02:03:27.692Z,386.00
2023-02-27T02:03:57.704Z,388.00
2023-02-27T02:04:27.749Z,388.00
2023-02-27T02:04:57.755Z,388.00
2023-02-27T02:05:27.780Z,388.00
2023-02-27T02:05:57.800Z,387.00
2023-02-27T02:06:27.855Z,386.00
2023-02-27T02:06:57.853Z,387.00
2023-02-27T02:07:27.881Z,387.00
2023-02-27T02:07:57.906Z,389.00
2023-02-27T02:08:27.934Z,391.00
2023-02-27T02:08:57.973Z,392.00
2023-02-27T02:09:27.996Z,392.00
2023-02-27T02:09:58.022Z,391.00
2023-02-27T02:10:28.047Z,391.00
2023-02-27T02:10:58.083Z,392.00
2023-02-27T02:11:28.458Z,390.00
2023-02-27T02:11:58.228Z,392.00
2023-02-27T02:12:28.260Z,391.00
2023-02-27T02:12:58.285Z,393.00
2023-02-27T02:13:28.310Z,394.00
2023-02-27T02:13:58.361Z,395.00
2023-02-27T02:14:28.367Z,397.00
2023-02-27T02:14:58.389Z,396.00
2023-02-27T02:15:28.412Z,396.00
2023-02-27T02:15:58.455Z,393.00
2023-02-27T02:16:28.581Z,394.00
2023-02-27T02:16:58.590Z,393.00
2023-02-27T02:17:28.516Z,394.00
2023-02-27T02:17:58.544Z,395.00
2023-02-27T02:18:28.586Z,396.00
2023-02-27T02:18:58.664Z,398.00
2023-02-27T02:19:28.703Z,398.00
2023-02-27T02:19:58.732Z,398.00
2023-02-27T02:20:28.747Z,396.00
2023-02-27T02:20:58.781Z,396.00
2023-02-27T02:21:28.996Z,396.00
2023-02-27T02:21:58.842Z,396.00
2023-02-27T02:22:28.841Z,396.00
2023-02-27T02:22:58.871Z,397.00
2023-02-27T02:23:28.896Z,398.00
2023-02-27T02:23:58.933Z,398.00
2023-02-27T02:24:28.964Z,396.00
2023-02-27T02:24:58.988Z,396.00
2023-02-27T02:25:29.017Z,396.00
2023-02-27T02:25:59.039Z,396.00
2023-02-27T02:26:31.029Z,393.00
2023-02-27T02:26:59.170Z,392.00
2023-02-27T02:27:29.194Z,391.00
2023-02-27T02:27:59.220Z,391.00
2023-02-27T02:28:29.241Z,392.00
2023-02-27T02:28:59.291Z,392.00
2023-02-27T02:29:29.305Z,391.00
2023-02-27T02:29:59.331Z,391.00
2023-02-27T02:30:29.513Z,391.00
2023-02-27T02:30:59.466Z,389.00
2023-02-27T02:31:30.024Z,390.00
2023-02-27T02:31:59.613Z,389.00
2023-02-27T02:32:29.661Z,393.00
2023-02-27T02:32:59.587Z,393.00
2023-02-27T02:33:29.616Z,395.00
2023-02-27T02:33:59.643Z,395.00
2023-02-27T02:34:29.664Z,392.00
2023-02-27T02:34:59.685Z,394.00
2023-02-27T02:35:29.728Z,395.00
2023-02-27T02:35:59.738Z,395.00
2023-02-27T02:36:29.763Z,393.00
2023-02-27T02:36:59.790Z,394.00
2023-02-27T02:37:29.837Z,392.00
2023-02-27T02:37:59.850Z,389.00
2023-02-27T02:38:29.883Z,389.00
2023-02-27T02:38:59.907Z,390.00
2023-02-27T02:39:29.931Z,390.00
2023-02-27T02:39:59.947Z,392.00
2023-02-27T02:40:29.953Z,392.00
2023-02-27T02:41:00.094Z,392.00
2023-02-27T02:41:30.071Z,391.00
2023-02-27T02:42:00.176Z,392.00
2023-02-27T02:42:30.287Z,393.00
2023-02-27T02:43:00.401Z,394.00
2023-02-27T02:43:30.510Z,394.00
2023-02-27T02:44:00.627Z,392.00
2023-02-27T02:44:30.759Z,393.00
2023-02-27T02:45:00.748Z,394.00
2023-02-27T02:45:30.860Z,393.00
2023-02-27T02:46:01.053Z,392.00
2023-02-27T02:46:31.020Z,390.00
2023-02-27T02:47:01.133Z,391.00
2023-02-27T02:47:31.252Z,391.00
2023-02-27T02:48:01.261Z,394.00
2023-02-27T02:48:31.363Z,396.00
2023-02-27T02:49:01.473Z,395.00
2023-02-27T02:49:31.630Z,394.00
2023-02-27T02:50:01.643Z,394.00
2023-02-27T02:50:31.660Z,394.00
2023-02-27T02:51:01.689Z,395.00
2023-02-27T02:51:31.728Z,394.00
2023-02-27T02:52:01.753Z,395.00
2023-02-27T02:52:31.772Z,393.00
2023-02-27T02:53:01.845Z,393.00
2023-02-27T02:53:36.989Z,394.00
2023-02-27T02:54:01.894Z,396.00
2023-02-27T02:54:32.077Z,395.00
2023-02-27T02:55:01.985Z,397.00
2023-02-27T02:55:31.998Z,395.00
2023-02-27T02:56:02.028Z,395.00
2023-02-27T02:56:32.066Z,395.00
2023-02-27T02:57:02.105Z,397.00
2023-02-27T02:57:32.130Z,394.00
2023-02-27T02:58:02.155Z,391.00
2023-02-27T02:58:32.178Z,392.00
2023-02-27T02:59:02.216Z,393.00
2023-02-27T02:59:32.497Z,395.00
2023-02-27T03:00:02.251Z,394.00
2023-02-27T03:00:32.284Z,393.00
2023-02-27T03:01:02.304Z,393.00
2023-02-27T03:01:32.410Z,393.00
2023-02-27T03:02:02.350Z,393.00
2023-02-27T03:02:32.374Z,393.00
2023-02-27T03:03:02.405Z,394.00
2023-02-27T03:03:32.426Z,393.00
2023-02-27T03:04:02.504Z,392.00
2023-02-27T03:04:32.659Z,392.00
2023-02-27T03:05:02.575Z,392.00
2023-02-27T03:05:32.609Z,393.00
2023-02-27T03:06:02.627Z,393.00
2023-02-27T03:06:32.647Z,396.00
2023-02-27T03:07:02.669Z,397.00
2023-02-27T03:07:32.735Z,395.00
2023-02-27T03:08:02.775Z,395.00
2023-02-27T03:08:33.081Z,393.00
2023-02-27T03:09:02.848Z,392.00
2023-02-27T03:09:32.861Z,391.00
2023-02-27T03:10:02.894Z,390.00
2023-02-27T03:10:32.912Z,389.00
2023-02-27T03:11:02.937Z,391.00
2023-02-27T03:11:32.971Z,391.00
2023-02-27T03:12:03.058Z,391.00
2023-02-27T03:12:33.088Z,392.00
2023-02-27T03:13:03.110Z,392.00
2023-02-27T03:13:33.137Z,392.00
2023-02-27T03:14:03.164Z,393.00
2023-02-27T03:14:33.194Z,394.00
2023-02-27T03:15:03.230Z,396.00
2023-02-27T03:15:33.307Z,394.00
2023-02-27T03:16:03.356Z,393.00
2023-02-27T03:16:33.310Z,392.00
2023-02-27T03:17:03.342Z,391.00
2023-02-27T03:17:33.365Z,391.00
2023-02-27T03:18:03.386Z,390.00
2023-02-27T03:18:33.414Z,389.00
2023-02-27T03:19:03.440Z,390.00
2023-02-27T03:19:33.469Z,388.00
2023-02-27T03:20:03.487Z,388.00
2023-02-27T03:20:33.517Z,386.00
2023-02-27T03:21:03.534Z,389.00
2023-02-27T03:21:33.575Z,390.00
2023-02-27T03:22:03.608Z,390.00
2023-02-27T03:22:33.630Z,389.00
2023-02-27T03:23:03.658Z,390.00
2023-02-27T03:23:33.687Z,390.00
2023-02-27T03:24:03.782Z,390.00
2023-02-27T03:24:33.772Z,386.00
2023-02-27T03:25:03.805Z,385.00
2023-02-27T03:25:33.822Z,384.00
2023-02-27T03:26:03.861Z,385.00
2023-02-27T03:26:33.887Z,384.00
2023-02-27T03:27:03.940Z,383.00
2023-02-27T03:27:33.971Z,384.00
2023-02-27T03:28:04.000Z,383.00
2023-02-27T03:28:34.027Z,383.00
2023-02-27T03:29:04.055Z,384.00
2023-02-27T03:29:34.076Z,384.00
2023-02-27T03:30:04.110Z,385.00
2023-02-27T03:30:34.174Z,384.00
2023-02-27T03:31:04.281Z,384.00
2023-02-27T03:31:34.317Z,386.00
2023-02-27T03:32:04.309Z,387.00
2023-02-27T03:32:34.293Z,386.00
2023-02-27T03:33:04.319Z,386.00
2023-02-27T03:33:34.344Z,388.00
2023-02-27T03:34:04.374Z,389.00
2023-02-27T03:34:34.398Z,388.00
2023-02-27T03:35:04.423Z,388.00
2023-02-27T03:35:34.440Z,388.00
2023-02-27T03:36:04.472Z,390.00
2023-02-27T03:36:34.489Z,388.00
2023-02-27T03:37:04.524Z,388.00
2023-02-27T03:37:34.542Z,389.00
2023-02-27T03:38:04.590Z,389.00
2023-02-27T03:38:34.617Z,389.00
2023-02-27T03:39:04.644Z,389.00
2023-02-27T03:39:34.680Z,389.00
2023-02-27T03:40:04.720Z,390.00
2023-02-27T03:40:34.709Z,391.00
2023-02-27T03:41:04.800Z,391.00
2023-02-27T03:41:34.910Z,390.00
2023-02-27T03:42:05.025Z,390.00
2023-02-27T03:42:35.133Z,390.00
2023-02-27T03:43:05.244Z,392.00
2023-02-27T03:43:35.367Z,391.00
2023-02-27T03:44:05.467Z,387.00
2023-02-27T03:44:35.583Z,387.00
2023-02-27T03:45:05.695Z,388.00
2023-02-27T03:45:35.807Z,388.00
2023-02-27T03:46:06.004Z,386.00
2023-02-27T03:46:36.044Z,388.00
2023-02-27T03:47:06.003Z,390.00
2023-02-27T03:47:36.107Z,389.00
2023-02-27T03:48:06.257Z,392.00
2023-02-27T03:48:36.237Z,393.00
2023-02-27T03:49:06.351Z,393.00
2023-02-27T03:49:36.464Z,395.00
2023-02-27T03:50:06.572Z,395.00
2023-02-27T03:50:36.602Z,390.00
2023-02-27T03:51:06.615Z,388.00
2023-02-27T03:51:36.641Z,387.00
2023-02-27T03:52:06.680Z,389.00
2023-02-27T03:52:36.700Z,388.00
2023-02-27T03:53:06.746Z,390.00
2023-02-27T03:53:36.780Z,391.00
2023-02-27T03:54:06.796Z,394.00
2023-02-27T03:54:36.825Z,393.00
2023-02-27T03:55:06.877Z,390.00
2023-02-27T03:55:36.872Z,389.00
2023-02-27T03:56:06.899Z,387.00
2023-02-27T03:56:36.921Z,386.00
2023-02-27T03:57:06.950Z,386.00
2023-02-27T03:57:36.970Z,390.00
2023-02-27T03:58:07.043Z,389.00
2023-02-27T03:58:37.063Z,392.00
2023-02-27T03:59:07.085Z,392.00
2023-02-27T03:59:37.114Z,394.00
2023-02-27T04:00:07.168Z,395.00
2023-02-27T04:00:37.176Z,394.00
2023-02-27T04:01:07.195Z,395.00
2023-02-27T04:01:37.246Z,393.00
2023-02-27T04:02:07.317Z,392.00
2023-02-27T04:02:37.381Z,391.00
2023-02-27T04:03:07.449Z,391.00
2023-02-27T04:03:37.461Z,391.00
2023-02-27T04:04:07.491Z,390.00
2023-02-27T04:04:37.505Z,393.00
2023-02-27T04:05:07.527Z,393.00
2023-02-27T04:05:37.591Z,392.00
2023-02-27T04:06:07.589Z,390.00
2023-02-27T04:06:37.613Z,390.00
2023-02-27T04:07:07.635Z,393.00
2023-02-27T04:07:37.665Z,392.00
2023-02-27T04:08:07.764Z,392.00
2023-02-27T04:08:37.790Z,391.00
2023-02-27T04:09:07.818Z,392.00
2023-02-27T04:09:37.838Z,391.00
2023-02-27T04:10:07.860Z,393.00
2023-02-27T04:10:37.923Z,394.00
2023-02-27T04:11:07.910Z,392.00
2023-02-27T04:11:37.936Z,393.00
2023-02-27T04:12:07.976Z,395.00
2023-02-27T04:12:37.993Z,396.00
2023-02-27T04:13:08.029Z,396.00
2023-02-27T04:13:38.044Z,395.00
2023-02-27T04:14:08.069Z,395.00
2023-02-27T04:14:38.096Z,395.00
2023-02-27T04:15:08.118Z,394.00
2023-02-27T04:15:38.141Z,395.00
2023-02-27T04:16:08.189Z,395.00
2023-02-27T04:16:38.199Z,397.00
2023-02-27T04:17:08.220Z,396.00
2023-02-27T04:17:38.248Z,395.00
2023-02-27T04:18:08.270Z,392.00
2023-02-27T04:18:38.302Z,392.00
2023-02-27T04:19:08.314Z,393.00
2023-02-27T04:19:38.339Z,392.00
2023-02-27T04:20:08.374Z,393.00
2023-02-27T04:20:38.397Z,395.00
2023-02-27T04:21:08.422Z,394.00
2023-02-27T04:21:38.454Z,394.00
2023-02-27T04:22:08.477Z,391.00
2023-02-27T04:22:38.502Z,392.00
2023-02-27T04:23:08.529Z,392.00
2023-02-27T04:23:38.552Z,392.00
2023-02-27T04:24:08.573Z,392.00
2023-02-27T04:24:38.600Z,393.00
2023-02-27T04:25:08.618Z,394.00
2023-02-27T04:25:38.648Z,394.00
2023-02-27T04:26:08.688Z,397.00
2023-02-27T04:26:38.693Z,397.00
2023-02-27T04:27:08.740Z,398.00
2023-02-27T04:27:38.754Z,398.00
2023-02-27T04:28:08.800Z,395.00
2023-02-27T04:28:38.813Z,395.00
2023-02-27T04:29:08.838Z,393.00
2023-02-27T04:29:38.859Z,392.00
2023-02-27T04:30:08.890Z,392.00
2023-02-27T04:30:38.909Z,390.00
2023-02-27T04:31:09.144Z,390.00
2023-02-27T04:31:39.155Z,388.00
2023-02-27T04:32:09.254Z,388.00
2023-02-27T04:32:39.206Z,388.00
2023-02-27T04:33:09.123Z,388.00
2023-02-27T04:33:39.149Z,389.00
2023-02-27T04:34:09.175Z,391.00
2023-02-27T04:34:39.196Z,393.00
2023-02-27T04:35:09.239Z,394.00
2023-02-27T04:35:39.246Z,394.00
2023-02-27T04:36:11.321Z,394.00
2023-02-27T04:36:39.370Z,395.00
2023-02-27T04:37:09.392Z,396.00
2023-02-27T04:37:39.421Z,396.00
2023-02-27T04:38:09.474Z,397.00
2023-02-27T04:38:39.486Z,398.00
2023-02-27T04:39:09.515Z,400.00
2023-02-27T04:39:39.538Z,400.00
2023-02-27T04:40:09.558Z,400.00
2023-02-27T04:40:39.672Z,401.00
2023-02-27T04:41:09.777Z,398.00
2023-02-27T04:41:39.928Z,397.00
2023-02-27T04:42:10.008Z,397.00
2023-02-27T04:42:40.125Z,397.00
2023-02-27T04:43:10.271Z,400.00
2023-02-27T04:43:40.276Z,401.00
2023-02-27T04:44:10.247Z,398.00
2023-02-27T04:44:40.350Z,397.00
2023-02-27T04:45:10.364Z,394.00
2023-02-27T04:45:40.390Z,394.00
2023-02-27T04:46:10.386Z,393.00
2023-02-27T04:46:40.495Z,395.00
2023-02-27T04:47:10.627Z,392.00
2023-02-27T04:47:40.747Z,390.00
2023-02-27T04:48:10.728Z,391.00
2023-02-27T04:48:40.845Z,408.00
2023-02-27T04:49:10.951Z,417.00
2023-02-27T04:49:41.064Z,413.00
2023-02-27T04:50:11.062Z,415.00
2023-02-27T04:50:41.090Z,417.00
2023-02-27T04:51:11.474Z,416.00
2023-02-27T04:51:41.229Z,417.00
2023-02-27T04:52:11.259Z,421.00
2023-02-27T04:52:41.305Z,424.00
2023-02-27T04:53:11.330Z,422.00
2023-02-27T04:53:41.359Z,421.00
2023-02-27T04:54:11.382Z,419.00
2023-02-27T04:54:41.407Z,419.00
2023-02-27T04:55:11.436Z,419.00
2023-02-27T04:55:41.464Z,419.00
2023-02-27T04:56:11.486Z,418.00
2023-02-27T04:56:41.517Z,421.00
2023-02-27T04:57:11.564Z,424.00
2023-02-27T04:57:41.603Z,425.00
2023-02-27T04:58:11.639Z,425.00
2023-02-27T04:58:41.670Z,427.00
2023-02-27T04:59:11.690Z,425.00
2023-02-27T04:59:41.719Z,428.00
2023-02-27T05:00:11.761Z,429.00
2023-02-27T05:00:41.779Z,429.00
2023-02-27T05:01:11.807Z,429.00
2023-02-27T05:01:41.898Z,428.00
2023-02-27T05:02:12.030Z,428.00
2023-02-27T05:02:42.159Z,428.00
2023-02-27T05:03:12.061Z,428.00
2023-02-27T05:03:42.078Z,429.00
2023-02-27T05:04:12.105Z,430.00
2023-02-27T05:04:42.130Z,430.00
2023-02-27T05:05:12.152Z,431.00
2023-02-27T05:05:42.214Z,432.00
2023-02-27T05:06:12.248Z,434.00
2023-02-27T05:06:42.263Z,437.00
2023-02-27T05:07:12.288Z,440.00
2023-02-27T05:07:42.312Z,441.00
2023-02-27T05:08:12.373Z,443.00
2023-02-27T05:08:42.386Z,444.00
2023-02-27T05:09:12.421Z,445.00
2023-02-27T05:09:42.432Z,443.00
2023-02-27T05:10:12.461Z,442.00
2023-02-27T05:10:42.481Z,446.00
2023-02-27T05:11:12.509Z,449.00
2023-02-27T05:11:42.534Z,449.00
2023-02-27T05:12:12.592Z,456.00
2023-02-27T05:12:42.675Z,457.00
2023-02-27T05:13:12.691Z,457.00
2023-02-27T05:13:42.715Z,456.00
2023-02-27T05:14:12.732Z,456.00
2023-02-27T05:14:42.770Z,456.00
2023-02-27T05:15:12.773Z,457.00
2023-02-27T05:15:42.834Z,456.00
2023-02-27T05:16:12.860Z,457.00
2023-02-27T05:16:42.925Z,457.00
2023-02-27T05:17:12.940Z,457.00
2023-02-27T05:17:42.969Z,458.00
2023-02-27T05:18:13.151Z,459.00
2023-02-27T05:18:43.052Z,460.00
2023-02-27T05:19:13.074Z,460.00
2023-02-27T05:19:43.102Z,458.00
2023-02-27T05:20:13.131Z,460.00
2023-02-27T05:20:43.155Z,459.00
2023-02-27T05:21:13.180Z,457.00
2023-02-27T05:21:43.208Z,458.00
2023-02-27T05:22:13.235Z,459.00
2023-02-27T05:22:43.265Z,459.00
2023-02-27T05:23:13.289Z,460.00
2023-02-27T05:23:43.310Z,461.00
2023-02-27T05:24:13.358Z,460.00
2023-02-27T05:24:43.357Z,461.00
2023-02-27T05:25:13.412Z,462.00
2023-02-27T05:25:43.412Z,462.00
2023-02-27T05:26:13.441Z,459.00
2023-02-27T05:26:43.460Z,458.00
2023-02-27T05:27:13.487Z,458.00
2023-02-27T05:27:43.507Z,457.00
2023-02-27T05:28:13.565Z,457.00
2023-02-27T05:28:45.055Z,457.00
2023-02-27T05:29:13.587Z,456.00
2023-02-27T05:29:43.620Z,455.00
2023-02-27T05:30:13.662Z,457.00
2023-02-27T05:30:43.693Z,459.00
2023-02-27T05:31:13.752Z,459.00
2023-02-27T05:31:43.930Z,460.00
2023-02-27T05:32:13.939Z,461.00
2023-02-27T05:32:43.850Z,462.00
2023-02-27T05:33:13.864Z,462.00
2023-02-27T05:33:43.892Z,460.00
2023-02-27T05:34:13.922Z,460.00
2023-02-27T05:34:43.945Z,460.00
2023-02-27T05:35:13.975Z,460.00
2023-02-27T05:35:44.008Z,454.00
2023-02-27T05:36:14.037Z,492.00
2023-02-27T05:36:44.066Z,493.00
2023-02-27T05:37:14.099Z,486.00
2023-02-27T05:37:44.150Z,482.00
2023-02-27T05:38:14.187Z,479.00
2023-02-27T05:38:44.204Z,478.00
2023-02-27T05:39:14.250Z,475.00
2023-02-27T05:39:44.251Z,475.00
2023-02-27T05:40:14.269Z,477.00
2023-02-27T05:40:44.434Z,475.00
2023-02-27T05:41:14.399Z,477.00
2023-02-27T05:41:44.457Z,479.00
2023-02-27T05:42:14.403Z,480.00
2023-02-27T05:42:44.518Z,478.00
2023-02-27T05:43:14.630Z,478.00
2023-02-27T05:43:44.774Z,481.00
2023-02-27T05:44:14.860Z,480.00
2023-02-27T05:44:44.978Z,481.00
2023-02-27T05:45:15.089Z,481.00
2023-02-27T05:45:45.246Z,482.00
2023-02-27T05:46:15.231Z,483.00
2023-02-27T05:46:45.215Z,485.00
2023-02-27T05:47:15.201Z,486.00
2023-02-27T05:47:45.317Z,485.00
2023-02-27T05:48:17.210Z,485.00
2023-02-27T05:48:45.507Z,487.00
2023-02-27T05:49:15.617Z,490.00
2023-02-27T05:49:46.539Z,490.00
2023-02-27T05:50:15.780Z,490.00
2023-02-27T05:50:45.803Z,491.00
2023-02-27T05:51:15.838Z,493.00
2023-02-27T05:51:45.847Z,494.00
2023-02-27T05:52:15.878Z,493.00
2023-02-27T05:52:45.908Z,491.00
2023-02-27T05:53:15.903Z,491.00
2023-02-27T05:53:45.926Z,492.00
2023-02-27T05:54:15.957Z,491.00
2023-02-27T05:54:45.987Z,491.00
2023-02-27T05:55:18.608Z,490.00
2023-02-27T05:55:46.116Z,490.00
2023-02-27T05:56:16.142Z,490.00
2023-02-27T05:56:46.170Z,490.00
2023-02-27T05:57:16.194Z,487.00
2023-02-27T05:57:46.224Z,488.00
2023-02-27T05:58:16.252Z,489.00
2023-02-27T05:58:46.275Z,489.00
2023-02-27T05:59:16.328Z,490.00
2023-02-27T05:59:46.334Z,492.00
2023-02-27T06:00:16.362Z,499.00
2023-02-27T06:00:46.388Z,497.00
2023-02-27T06:01:16.416Z,495.00
2023-02-27T06:01:46.692Z,492.00
2023-02-27T06:02:16.691Z,490.00
2023-02-27T06:02:46.556Z,488.00
2023-02-27T06:03:16.624Z,488.00
2023-02-27T06:03:46.667Z,488.00
2023-02-27T06:04:16.678Z,490.00
2023-02-27T06:04:46.699Z,494.00
2023-02-27T06:05:16.745Z,494.00
2023-02-27T06:05:46.754Z,494.00
2023-02-27T06:06:16.775Z,493.00
2023-02-27T06:06:46.795Z,492.00
2023-02-27T06:07:16.831Z,492.00
2023-02-27T06:07:46.847Z,496.00
2023-02-27T06:08:16.888Z,498.00
2023-02-27T06:08:46.927Z,499.00
2023-02-27T06:09:16.947Z,502.00
2023-02-27T06:09:46.988Z,502.00
2023-02-27T06:10:17.006Z,503.00
2023-02-27T06:10:47.027Z,501.00
2023-02-27T06:11:17.056Z,502.00
2023-02-27T06:11:47.097Z,503.00
2023-02-27T06:12:17.120Z,502.00
2023-02-27T06:12:47.145Z,503.00
2023-02-27T06:13:17.209Z,503.00
2023-02-27T06:13:47.204Z,504.00
2023-02-27T06:14:17.238Z,504.00
2023-02-27T06:14:47.283Z,504.00